createdAt,value
2024-04-14T00:00:01.362Z,13.00
2024-04-14T00:05:00.392Z,12.88
2024-04-14T00:10:00.519Z,12.83
2024-04-14T00:15:00.327Z,12.86
2024-04-14T00:20:00.423Z,12.91
2024-04-14T00:25:00.370Z,12.89
2024-04-14T00:30:00.361Z,12.86
2024-04-14T00:35:00.410Z,12.87
2024-04-14T00:40:00.383Z,12.82
2024-04-14T00:45:00.346Z,12.75
2024-04-14T00:50:00.352Z,12.70
2024-04-14T00:55:01.130Z,12.66
2024-04-14T01:00:02.043Z,12.66
2024-04-14T01:05:00.379Z,12.64
2024-04-14T01:10:00.599Z,12.63
2024-04-14T01:15:01.209Z,12.61
2024-04-14T01:20:00.414Z,12.62
2024-04-14T01:25:03.982Z,12.55
2024-04-14T01:30:01.208Z,12.49
2024-04-14T01:35:00.670Z,12.41
2024-04-14T01:40:00.571Z,12.35
2024-04-14T01:45:00.419Z,12.30
2024-04-14T01:50:00.389Z,12.27
2024-04-14T01:55:00.514Z,12.24
2024-04-14T02:00:01.676Z,12.19
2024-04-14T02:05:00.343Z,12.08
2024-04-14T02:10:00.587Z,11.98
2024-04-14T02:15:00.532Z,11.89
2024-04-14T02:20:00.412Z,11.88
2024-04-14T02:25:00.599Z,11.92
2024-04-14T02:30:00.357Z,11.94
2024-04-14T02:35:00.347Z,11.94
2024-04-14T02:40:00.559Z,11.85
2024-04-14T02:45:00.347Z,11.74
2024-04-14T02:50:00.349Z,11.72
2024-04-14T02:55:00.389Z,11.69
2024-04-14T03:00:00.980Z,11.68
2024-04-14T03:05:00.398Z,11.61
2024-04-14T03:10:00.403Z,11.48
2024-04-14T03:15:00.343Z,11.35
2024-04-14T03:20:00.402Z,11.22
2024-04-14T03:25:00.427Z,11.11
2024-04-14T03:30:00.369Z,10.96
2024-04-14T03:35:00.339Z,10.80
2024-04-14T03:40:00.432Z,10.73
2024-04-14T03:45:04.010Z,10.66
2024-04-14T03:50:00.736Z,10.58
2024-04-14T03:55:00.487Z,10.47
2024-04-14T04:00:02.245Z,10.35
2024-04-14T04:05:00.349Z,10.30
2024-04-14T04:10:00.721Z,10.24
2024-04-14T04:15:00.375Z,10.14
2024-04-14T04:20:00.499Z,10.02
2024-04-14T04:25:00.517Z,9.86
2024-04-14T04:30:00.363Z,9.77
2024-04-14T04:35:00.332Z,9.69
2024-04-14T04:40:00.479Z,9.69
2024-04-14T04:45:00.328Z,9.72
2024-04-14T04:50:00.352Z,9.77
2024-04-14T04:55:00.560Z,9.82
2024-04-14T05:00:01.059Z,9.90
2024-04-14T05:05:00.327Z,9.97
2024-04-14T05:10:00.655Z,10.02
2024-04-14T05:15:00.416Z,10.09
2024-04-14T05:20:00.354Z,10.15
2024-04-14T05:25:00.770Z,10.21
2024-04-14T05:30:00.401Z,10.25
2024-04-14T05:35:00.359Z,10.30
2024-04-14T05:40:00.381Z,10.38
2024-04-14T05:45:00.327Z,10.42
2024-04-14T05:50:01.760Z,10.51
2024-04-14T05:55:00.465Z,10.58
2024-04-14T06:00:02.466Z,10.64
2024-04-14T06:05:00.341Z,10.69
2024-04-14T06:10:00.530Z,10.71
2024-04-14T06:15:00.365Z,10.80
2024-04-14T06:20:00.353Z,10.87
2024-04-14T06:25:00.599Z,10.95
2024-04-14T06:30:00.410Z,10.98
2024-04-14T06:35:00.323Z,11.11
2024-04-14T06:40:00.403Z,11.24
2024-04-14T06:45:00.509Z,11.36
2024-04-14T06:50:00.348Z,11.43
2024-04-14T06:55:00.474Z,11.49
2024-04-14T07:00:02.147Z,11.61
2024-04-14T07:05:00.323Z,11.68
2024-04-14T07:10:00.370Z,11.83
2024-04-14T07:15:00.862Z,12.01
2024-04-14T07:20:00.355Z,12.13
2024-04-14T07:25:00.436Z,12.18
2024-04-14T07:30:00.562Z,12.30
2024-04-14T07:35:00.351Z,12.39
2024-04-14T07:40:00.402Z,12.62
2024-04-14T07:45:00.348Z,12.92
2024-04-14T07:50:00.347Z,12.94
2024-04-14T07:55:00.518Z,12.99
2024-04-14T08:00:02.147Z,13.19
2024-04-14T08:05:00.501Z,13.42
2024-04-14T08:10:00.481Z,13.41
2024-04-14T08:15:00.351Z,13.55
2024-04-14T08:20:00.333Z,13.70
2024-04-14T08:25:00.679Z,13.89
2024-04-14T08:30:00.412Z,13.89
2024-04-14T08:35:00.334Z,13.97
2024-04-14T08:40:01.309Z,13.91
2024-04-14T08:45:01.665Z,14.20
2024-04-14T08:50:02.286Z,14.56
2024-04-14T08:55:00.495Z,14.68
2024-04-14T09:00:01.853Z,14.39
2024-04-14T09:05:00.328Z,14.18
2024-04-14T09:10:00.418Z,14.08
2024-04-14T09:15:03.011Z,14.13
2024-04-14T09:20:00.396Z,14.41
2024-04-14T09:25:00.503Z,14.79
2024-04-14T09:30:19.339Z,15.03
2024-04-14T09:35:00.351Z,15.38
2024-04-14T09:40:05.110Z,15.59
2024-04-14T09:45:02.926Z,15.88
2024-04-14T09:50:00.851Z,16.12
2024-04-14T09:55:00.442Z,16.15
2024-04-14T10:00:01.627Z,16.28
2024-04-14T10:05:01.516Z,16.35
2024-04-14T10:10:00.608Z,16.32
2024-04-14T10:15:06.660Z,16.39
2024-04-14T10:20:02.823Z,16.46
2024-04-14T10:25:00.529Z,16.48
2024-04-14T10:30:02.851Z,16.38
2024-04-14T10:35:00.381Z,16.42
2024-04-14T10:40:00.422Z,16.78
2024-04-14T10:45:00.335Z,16.85
2024-04-14T10:50:00.397Z,16.93
2024-04-14T10:55:00.516Z,16.81
2024-04-14T11:00:01.035Z,16.92
2024-04-14T11:05:01.751Z,16.90
2024-04-14T11:10:01.093Z,17.22
2024-04-14T11:15:00.424Z,17.19
2024-04-14T11:20:00.453Z,17.49
2024-04-14T11:25:00.545Z,17.75
2024-04-14T11:30:00.621Z,17.84
2024-04-14T11:35:01.306Z,18.26
2024-04-14T11:40:01.033Z,18.08
2024-04-14T11:45:00.382Z,18.21
2024-04-14T11:50:00.341Z,18.36
2024-04-14T11:55:04.555Z,18.20
2024-04-14T12:00:01.304Z,18.25
2024-04-14T12:05:00.387Z,18.12
2024-04-14T12:10:00.491Z,18.56
2024-04-14T12:15:00.413Z,18.85
2024-04-14T12:20:00.346Z,18.46
2024-04-14T12:25:00.873Z,17.94
2024-04-14T12:30:00.385Z,17.68
2024-04-14T12:35:00.382Z,17.72
2024-04-14T12:40:00.515Z,17.65
2024-04-14T12:45:00.407Z,17.86
2024-04-14T12:50:00.420Z,17.86
2024-04-14T12:55:00.437Z,17.78
2024-04-14T13:00:00.998Z,17.10
2024-04-14T13:05:00.493Z,16.56
2024-04-14T13:10:00.448Z,16.58
2024-04-14T13:15:00.521Z,17.06
2024-04-14T13:20:00.378Z,17.23
2024-04-14T13:25:00.392Z,16.88
2024-04-14T13:30:00.534Z,16.47
2024-04-14T13:35:00.328Z,16.31
2024-04-14T13:40:00.450Z,16.28
2024-04-14T13:45:00.364Z,16.48
2024-04-14T13:50:00.350Z,16.35
2024-04-14T13:55:01.003Z,16.65
2024-04-14T14:00:01.315Z,16.90
2024-04-14T14:05:00.487Z,17.14
2024-04-14T14:10:00.484Z,17.48
2024-04-14T14:15:00.391Z,17.25
2024-04-14T14:20:00.335Z,17.45
2024-04-14T14:25:00.523Z,16.98
2024-04-14T14:30:00.400Z,17.13
2024-04-14T14:35:00.328Z,16.91
2024-04-14T14:40:00.461Z,17.35
2024-04-14T14:45:00.346Z,17.68
2024-04-14T14:50:00.368Z,17.61
2024-04-14T14:55:00.426Z,17.37
2024-04-14T15:00:00.991Z,17.50
2024-04-14T15:05:00.583Z,17.43
2024-04-14T15:10:00.433Z,16.97
2024-04-14T15:15:00.628Z,16.33
2024-04-14T15:20:00.588Z,16.07
2024-04-14T15:25:00.429Z,15.97
2024-04-14T15:30:00.337Z,15.86
2024-04-14T15:35:00.352Z,16.04
2024-04-14T15:40:01.132Z,16.06
2024-04-14T15:45:00.356Z,15.96
2024-04-14T15:50:00.583Z,15.80
2024-04-14T15:55:00.365Z,15.60
2024-04-14T16:00:01.757Z,15.52
2024-04-14T16:05:00.826Z,15.28
2024-04-14T16:10:00.719Z,15.10
2024-04-14T16:15:00.331Z,14.98
2024-04-14T16:20:00.378Z,14.86
2024-04-14T16:25:00.388Z,14.72
2024-04-14T16:30:00.517Z,14.57
2024-04-14T16:35:00.326Z,14.37
2024-04-14T16:40:00.412Z,14.26
2024-04-14T16:45:00.418Z,14.14
2024-04-14T16:50:00.360Z,13.90
2024-04-14T16:55:00.389Z,13.81
2024-04-14T17:00:01.383Z,13.73
2024-04-14T17:05:00.374Z,13.59
2024-04-14T17:10:00.564Z,13.42
2024-04-14T17:15:00.402Z,13.26
2024-04-14T17:20:00.353Z,13.17
2024-04-14T17:25:00.484Z,13.02
2024-04-14T17:30:00.393Z,12.94
2024-04-14T17:35:00.332Z,12.87
2024-04-14T17:40:03.461Z,12.79
2024-04-14T17:45:00.418Z,12.66
2024-04-14T17:50:00.343Z,12.54
2024-04-14T17:55:00.397Z,12.46
2024-04-14T18:00:00.914Z,12.41
2024-04-14T18:05:00.336Z,12.31
2024-04-14T18:10:00.476Z,12.21
2024-04-14T18:15:00.367Z,12.10
2024-04-14T18:20:00.424Z,12.00
2024-04-14T18:25:00.366Z,11.91
2024-04-14T18:30:00.502Z,11.81
2024-04-14T18:35:00.550Z,11.69
2024-04-14T18:40:00.388Z,11.57
2024-04-14T18:45:00.375Z,11.49
2024-04-14T18:50:00.386Z,11.38
2024-04-14T18:55:00.754Z,11.29
2024-04-14T19:00:01.020Z,11.21
2024-04-14T19:05:00.345Z,11.14
2024-04-14T19:10:00.439Z,11.06
2024-04-14T19:15:00.391Z,10.98
2024-04-14T19:20:00.344Z,10.92
2024-04-14T19:25:00.375Z,10.87
2024-04-14T19:30:00.841Z,10.82
2024-04-14T19:35:00.314Z,10.79
2024-04-14T19:40:00.396Z,10.76
2024-04-14T19:45:00.453Z,10.76
2024-04-14T19:50:00.343Z,10.78
2024-04-14T19:55:00.367Z,10.83
2024-04-14T20:00:00.968Z,10.90
2024-04-14T20:05:00.314Z,10.94
2024-04-14T20:10:00.717Z,10.97
2024-04-14T20:15:00.443Z,10.97
2024-04-14T20:20:00.350Z,11.00
2024-04-14T20:25:00.397Z,10.99
2024-04-14T20:30:00.555Z,10.96
2024-04-14T20:35:00.352Z,10.93
2024-04-14T20:40:00.608Z,10.91
2024-04-14T20:55:00.528Z,10.80
2024-04-14T21:00:00.764Z,10.79
2024-04-14T21:05:00.405Z,10.82
2024-04-14T21:10:00.491Z,10.84
2024-04-14T21:15:00.637Z,10.85
2024-04-14T21:20:00.408Z,10.80
2024-04-14T21:25:00.498Z,10.74
2024-04-14T21:30:00.438Z,10.69
2024-04-14T21:35:00.621Z,10.65
2024-04-14T21:40:00.531Z,10.65
2024-04-14T21:45:00.439Z,10.66
2024-04-14T21:50:00.489Z,10.68
2024-04-14T21:55:00.607Z,10.69
2024-04-14T22:00:01.066Z,10.67
2024-04-14T22:05:00.443Z,10.66
2024-04-14T22:10:00.594Z,10.66
2024-04-14T22:15:00.417Z,10.64
2024-04-14T22:20:00.477Z,10.65
2024-04-14T22:25:00.521Z,10.62
2024-04-14T22:30:00.432Z,10.57
2024-04-14T22:35:00.425Z,10.54
2024-04-14T22:40:00.546Z,10.51
2024-04-14T22:45:00.416Z,10.50
2024-04-14T22:50:02.281Z,10.51
2024-04-14T22:55:00.480Z,10.51
2024-04-14T23:00:01.148Z,10.50
2024-04-14T23:05:00.419Z,10.46
2024-04-14T23:10:00.727Z,10.38
2024-04-14T23:15:00.611Z,10.25
2024-04-14T23:20:00.384Z,10.06
2024-04-14T23:25:00.501Z,9.83
2024-04-14T23:30:00.427Z,9.57
2024-04-14T23:35:00.497Z,9.24
2024-04-14T23:40:00.461Z,8.98
2024-04-14T23:45:00.404Z,8.72
2024-04-14T23:50:00.393Z,8.53
2024-04-14T23:55:00.478Z,8.42
